Terminal Aerodrome Forecast
Issued by NWS

Home | Current Version | Previous Version | Text Only | Print | Product List | Glossary On
Versions: 1 2 3 4 5 6 7 8 9 10 11 12 13 14 15
000
FTUS45 KGJT 172332
TAFRIL
TAF
KRIL 172332Z 1800/1824 27015KT P6SM SCT200
     FM180200 24008KT P6SM SCT200
     FM180400 18005KT P6SM SKC
     FM181900 24015G25KT P6SM FEW070 SCT120=

USA.gov is the U.S. government's official web portal to all federal, state and local government web resources and services.